Terminal Aerodrome Forecast
Issued by NWS

Home | Current Version | Previous Version | Text Only | Print | Product List | Glossary On
Versions: 1 2 3 4 5 6 7 8 9 10 11 12 13 14 15 16 17 18 19 20 21 22 23 24 25 26
000
FTUS41 KPBZ 100900 AAC
TAFDUJ
TAF AMD
KDUJ 100952Z 1010/1106 04004KT 1 1/2SM BR OVC100
     FM101400 36003KT P6SM SCT040
     FM110400 00000KT 4SM BR FEW250=

USA.gov is the U.S. government's official web portal to all federal, state and local government web resources and services.